sensor_id;sensor_type;location;lat;lon;timestamp;P1;durP1;ratioP1;P2;durP2;ratioP2
11000;SDS011;5553;48.506;8.870;2022-09-01T02:46:44;27.20;;;18.97;;
11000;SDS011;5553;48.506;8.870;2022-09-01T02:49:15;43.10;;;18.73;;
11000;SDS011;5553;48.506;8.870;2022-09-01T02:51:50;50.50;;;19.40;;
11000;SDS011;5553;48.506;8.870;2022-09-01T02:54:22;64.90;;;24.20;;
11000;SDS011;5553;48.506;8.870;2022-09-01T02:56:52;69.43;;;20.10;;
11000;SDS011;5553;48.506;8.870;2022-09-01T03:02:34;99.83;;;22.33;;
11000;SDS011;5553;48.506;8.870;2022-09-01T03:05:03;31.53;;;17.90;;
11000;SDS011;5553;48.506;8.870;2022-09-01T03:07:32;35.00;;;18.60;;
11000;SDS011;5553;48.506;8.870;2022-09-01T03:10:00;26.90;;;18.73;;
11000;SDS011;5553;48.506;8.870;2022-09-01T03:12:33;62.80;;;21.20;;
11000;SDS011;5553;48.506;8.870;2022-09-01T03:15:02;32.93;;;20.40;;
11000;SDS011;5553;48.506;8.870;2022-09-01T03:17:31;50.50;;;21.97;;
11000;SDS011;5553;48.506;8.870;2022-09-01T03:20:02;41.57;;;20.67;;
11000;SDS011;5553;48.506;8.870;2022-09-01T03:22:31;31.03;;;19.33;;
11000;SDS011;5553;48.506;8.870;2022-09-01T03:24:59;28.77;;;18.03;;
11000;SDS011;5553;48.506;8.870;2022-09-01T03:27:28;29.67;;;19.07;;
11000;SDS011;5553;48.506;8.870;2022-09-01T03:29:57;57.43;;;20.40;;
11000;SDS011;5553;48.506;8.870;2022-09-01T03:32:25;40.10;;;19.53;;
11000;SDS011;5553;48.506;8.870;2022-09-01T03:34:54;51.20;;;20.47;;
11000;SDS011;5553;48.506;8.870;2022-09-01T03:37:25;89.77;;;24.63;;
11000;SDS011;5553;48.506;8.870;2022-09-01T03:39:53;71.77;;;22.30;;
11000;SDS011;5553;48.506;8.870;2022-09-01T03:42:23;56.33;;;23.07;;
11000;SDS011;5553;48.506;8.870;2022-09-01T03:44:52;39.27;;;21.33;;
11000;SDS011;5553;48.506;8.870;2022-09-01T03:47:20;39.50;;;21.13;;
11000;SDS011;5553;48.506;8.870;2022-09-01T03:49:48;31.10;;;20.07;;
11000;SDS011;5553;48.506;8.870;2022-09-01T03:52:19;45.93;;;21.40;;
11000;SDS011;5553;48.506;8.870;2022-09-01T03:54:56;39.57;;;20.73;;
11000;SDS011;5553;48.506;8.870;2022-09-01T03:57:25;42.13;;;21.10;;
11000;SDS011;5553;48.506;8.870;2022-09-01T03:59:53;57.43;;;23.70;;
11000;SDS011;5553;48.506;8.870;2022-09-01T04:02:22;45.23;;;23.50;;
11000;SDS011;5553;48.506;8.870;2022-09-01T04:04:53;64.20;;;24.90;;
11000;SDS011;5553;48.506;8.870;2022-09-01T04:07:23;30.70;;;23.00;;
11000;SDS011;5553;48.506;8.870;2022-09-01T04:09:51;45.10;;;24.27;;
11000;SDS011;5553;48.506;8.870;2022-09-01T04:12:22;39.00;;;22.93;;
11000;SDS011;5553;48.506;8.870;2022-09-01T04:14:50;45.00;;;23.97;;
11000;SDS011;5553;48.506;8.870;2022-09-01T04:17:18;68.87;;;25.50;;
11000;SDS011;5553;48.506;8.870;2022-09-01T04:20:00;47.03;;;22.60;;
11000;SDS011;5553;48.506;8.870;2022-09-01T04:22:32;43.40;;;23.40;;
11000;SDS011;5553;48.506;8.870;2022-09-01T04:25:02;51.53;;;23.67;;
11000;SDS011;5553;48.506;8.870;2022-09-01T04:27:33;73.83;;;25.83;;
11000;SDS011;5553;48.506;8.870;2022-09-01T04:30:04;56.47;;;27.17;;
11000;SDS011;5553;48.506;8.870;2022-09-01T04:32:34;46.33;;;28.70;;
11000;SDS011;5553;48.506;8.870;2022-09-01T04:35:04;35.37;;;24.10;;
11000;SDS011;5553;48.506;8.870;2022-09-01T04:37:35;38.00;;;24.70;;
11000;SDS011;5553;48.506;8.870;2022-09-01T04:40:04;41.93;;;25.73;;
11000;SDS011;5553;48.506;8.870;2022-09-01T04:42:36;37.23;;;25.03;;
11000;SDS011;5553;48.506;8.870;2022-09-01T04:45:07;34.77;;;25.00;;
11000;SDS011;5553;48.506;8.870;2022-09-01T04:47:38;35.97;;;26.47;;
11000;SDS011;5553;48.506;8.870;2022-09-01T04:50:07;38.00;;;26.07;;
11000;SDS011;5553;48.506;8.870;2022-09-01T04:52:41;36.67;;;24.33;;
11000;SDS011;5553;48.506;8.870;2022-09-01T04:55:10;48.63;;;26.27;;
11000;SDS011;5553;48.506;8.870;2022-09-01T04:57:44;36.10;;;24.93;;
11000;SDS011;5553;48.506;8.870;2022-09-01T05:00:14;37.83;;;27.43;;
11000;SDS011;5553;48.506;8.870;2022-09-01T05:02:49;40.40;;;28.50;;
11000;SDS011;5553;48.506;8.870;2022-09-01T05:05:19;47.20;;;27.90;;
11000;SDS011;5553;48.506;8.870;2022-09-01T05:07:48;43.50;;;28.20;;
11000;SDS011;5553;48.506;8.870;2022-09-01T05:10:19;43.23;;;27.63;;
11000;SDS011;5553;48.506;8.870;2022-09-01T05:12:56;40.13;;;26.03;;
11000;SDS011;5553;48.506;8.870;2022-09-01T05:15:25;37.40;;;26.20;;
11000;SDS011;5553;48.506;8.870;2022-09-01T05:17:55;41.10;;;27.40;;
11000;SDS011;5553;48.506;8.870;2022-09-01T05:20:26;39.97;;;27.27;;
11000;SDS011;5553;48.506;8.870;2022-09-01T05:22:56;41.50;;;27.70;;
11000;SDS011;5553;48.506;8.870;2022-09-01T05:25:24;37.50;;;26.53;;
11000;SDS011;5553;48.506;8.870;2022-09-01T05:27:52;32.30;;;25.10;;
11000;SDS011;5553;48.506;8.870;2022-09-01T05:30:23;34.27;;;24.83;;
11000;SDS011;5553;48.506;8.870;2022-09-01T05:32:52;30.67;;;23.60;;
11000;SDS011;5553;48.506;8.870;2022-09-01T05:35:20;32.80;;;23.67;;
11000;SDS011;5553;48.506;8.870;2022-09-01T05:37:52;33.20;;;23.43;;
11000;SDS011;5553;48.506;8.870;2022-09-01T05:40:20;31.80;;;22.60;;
11000;SDS011;5553;48.506;8.870;2022-09-01T05:42:48;34.40;;;24.47;;
11000;SDS011;5553;48.506;8.870;2022-09-01T05:45:20;30.27;;;22.70;;
11000;SDS011;5553;48.506;8.870;2022-09-01T05:47:50;39.93;;;27.47;;
11000;SDS011;5553;48.506;8.870;2022-09-01T05:50:19;30.07;;;23.83;;
11000;SDS011;5553;48.506;8.870;2022-09-01T05:52:47;32.60;;;25.17;;
11000;SDS011;5553;48.506;8.870;2022-09-01T05:55:15;35.43;;;25.60;;
11000;SDS011;5553;48.506;8.870;2022-09-01T05:57:44;33.80;;;24.90;;
11000;SDS011;5553;48.506;8.870;2022-09-01T06:00:13;33.03;;;23.57;;
11000;SDS011;5553;48.506;8.870;2022-09-01T06:02:44;30.40;;;24.07;;
11000;SDS011;5553;48.506;8.870;2022-09-01T06:05:13;33.37;;;24.53;;
11000;SDS011;5553;48.506;8.870;2022-09-01T06:07:41;33.63;;;26.10;;
11000;SDS011;5553;48.506;8.870;2022-09-01T06:10:09;33.73;;;24.80;;
11000;SDS011;5553;48.506;8.870;2022-09-01T06:12:38;32.07;;;25.60;;
11000;SDS011;5553;48.506;8.870;2022-09-01T06:15:09;31.57;;;24.97;;
11000;SDS011;5553;48.506;8.870;2022-09-01T06:17:39;28.37;;;23.83;;
11000;SDS011;5553;48.506;8.870;2022-09-01T06:20:11;30.00;;;23.43;;
11000;SDS011;5553;48.506;8.870;2022-09-01T06:22:42;31.50;;;24.30;;
11000;SDS011;5553;48.506;8.870;2022-09-01T06:25:11;28.50;;;22.80;;
11000;SDS011;5553;48.506;8.870;2022-09-01T06:27:41;31.20;;;23.43;;
11000;SDS011;5553;48.506;8.870;2022-09-01T06:30:10;32.87;;;23.73;;
11000;SDS011;5553;48.506;8.870;2022-09-01T06:32:44;27.67;;;22.57;;
11000;SDS011;5553;48.506;8.870;2022-09-01T06:35:16;28.70;;;22.73;;
11000;SDS011;5553;48.506;8.870;2022-09-01T06:37:45;31.07;;;23.37;;
11000;SDS011;5553;48.506;8.870;2022-09-01T06:40:15;26.13;;;21.67;;
11000;SDS011;5553;48.506;8.870;2022-09-01T06:42:44;28.00;;;22.37;;
11000;SDS011;5553;48.506;8.870;2022-09-01T06:45:15;29.87;;;22.57;;
11000;SDS011;5553;48.506;8.870;2022-09-01T06:47:45;26.47;;;21.50;;
11000;SDS011;5553;48.506;8.870;2022-09-01T06:50:18;28.63;;;22.10;;
11000;SDS011;5553;48.506;8.870;2022-09-01T06:52:48;27.37;;;23.27;;
11000;SDS011;5553;48.506;8.870;2022-09-01T06:55:25;26.60;;;23.10;;
11000;SDS011;5553;48.506;8.870;2022-09-01T06:57:57;28.07;;;23.07;;
11000;SDS011;5553;48.506;8.870;2022-09-01T07:00:28;25.23;;;21.43;;
11000;SDS011;5553;48.506;8.870;2022-09-01T07:02:56;27.07;;;22.10;;
11000;SDS011;5553;48.506;8.870;2022-09-01T07:05:36;25.90;;;21.70;;
11000;SDS011;5553;48.506;8.870;2022-09-01T07:08:06;29.00;;;23.17;;
11000;SDS011;5553;48.506;8.870;2022-09-01T07:10:41;29.27;;;23.40;;
11000;SDS011;5553;48.506;8.870;2022-09-01T07:13:11;27.90;;;21.27;;
11000;SDS011;5553;48.506;8.870;2022-09-01T07:15:46;28.13;;;22.70;;
11000;SDS011;5553;48.506;8.870;2022-09-01T07:18:15;34.30;;;25.73;;
11000;SDS011;5553;48.506;8.870;2022-09-01T07:20:47;34.03;;;25.23;;
11000;SDS011;5553;48.506;8.870;2022-09-01T07:23:16;30.43;;;24.57;;
11000;SDS011;5553;48.506;8.870;2022-09-01T07:25:46;30.07;;;24.30;;
11000;SDS011;5553;48.506;8.870;2022-09-01T07:28:20;28.90;;;23.27;;
11000;SDS011;5553;48.506;8.870;2022-09-01T07:30:50;28.27;;;23.00;;
11000;SDS011;5553;48.506;8.870;2022-09-01T07:33:20;32.83;;;24.50;;
11000;SDS011;5553;48.506;8.870;2022-09-01T07:35:53;30.17;;;23.00;;
11000;SDS011;5553;48.506;8.870;2022-09-01T07:38:22;26.53;;;22.20;;
11000;SDS011;5553;48.506;8.870;2022-09-01T07:40:52;25.67;;;21.50;;
11000;SDS011;5553;48.506;8.870;2022-09-01T07:43:22;23.23;;;20.37;;
11000;SDS011;5553;48.506;8.870;2022-09-01T07:45:53;24.10;;;20.10;;
11000;SDS011;5553;48.506;8.870;2022-09-01T07:48:24;21.40;;;18.70;;
11000;SDS011;5553;48.506;8.870;2022-09-01T07:50:56;23.60;;;19.57;;
11000;SDS011;5553;48.506;8.870;2022-09-01T07:53:26;28.40;;;21.57;;
11000;SDS011;5553;48.506;8.870;2022-09-01T07:55:56;28.83;;;20.37;;
11000;SDS011;5553;48.506;8.870;2022-09-01T07:58:27;21.90;;;19.03;;
11000;SDS011;5553;48.506;8.870;2022-09-01T08:00:57;20.33;;;18.23;;
11000;SDS011;5553;48.506;8.870;2022-09-01T08:03:27;21.90;;;19.40;;
11000;SDS011;5553;48.506;8.870;2022-09-01T08:06:03;18.47;;;16.10;;
11000;SDS011;5553;48.506;8.870;2022-09-01T08:08:34;16.13;;;14.43;;
11000;SDS011;5553;48.506;8.870;2022-09-01T08:11:04;16.60;;;14.40;;
11000;SDS011;5553;48.506;8.870;2022-09-01T08:13:33;18.23;;;15.40;;
11000;SDS011;5553;48.506;8.870;2022-09-01T08:16:03;17.10;;;14.60;;
11000;SDS011;5553;48.506;8.870;2022-09-01T08:18:32;15.77;;;14.10;;
11000;SDS011;5553;48.506;8.870;2022-09-01T08:21:08;18.53;;;16.63;;
11000;SDS011;5553;48.506;8.870;2022-09-01T08:23:38;15.90;;;14.10;;
11000;SDS011;5553;48.506;8.870;2022-09-01T08:26:08;17.27;;;15.50;;
11000;SDS011;5553;48.506;8.870;2022-09-01T08:28:38;13.50;;;12.17;;
11000;SDS011;5553;48.506;8.870;2022-09-01T08:31:07;16.10;;;14.40;;
11000;SDS011;5553;48.506;8.870;2022-09-01T08:33:37;15.97;;;13.47;;
11000;SDS011;5553;48.506;8.870;2022-09-01T08:36:10;15.67;;;14.07;;
11000;SDS011;5553;48.506;8.870;2022-09-01T08:38:40;15.20;;;13.60;;
11000;SDS011;5553;48.506;8.870;2022-09-01T08:41:12;14.30;;;12.80;;
11000;SDS011;5553;48.506;8.870;2022-09-01T08:43:47;13.73;;;12.27;;
11000;SDS011;5553;48.506;8.870;2022-09-01T08:46:24;12.47;;;11.17;;
11000;SDS011;5553;48.506;8.870;2022-09-01T08:48:55;13.87;;;12.60;;
11000;SDS011;5553;48.506;8.870;2022-09-01T08:51:31;14.40;;;12.20;;
11000;SDS011;5553;48.506;8.870;2022-09-01T08:54:05;12.87;;;11.43;;
11000;SDS011;5553;48.506;8.870;2022-09-01T08:56:50;12.83;;;11.63;;
11000;SDS011;5553;48.506;8.870;2022-09-01T08:59:21;13.60;;;12.30;;
11000;SDS011;5553;48.506;8.870;2022-09-01T09:01:51;12.00;;;10.03;;
11000;SDS011;5553;48.506;8.870;2022-09-01T09:04:30;11.40;;;10.30;;
11000;SDS011;5553;48.506;8.870;2022-09-01T09:07:17;11.60;;;10.60;;
11000;SDS011;5553;48.506;8.870;2022-09-01T09:09:58;12.13;;;10.93;;
11000;SDS011;5553;48.506;8.870;2022-09-01T09:12:36;10.43;;;9.33;;
11000;SDS011;5553;48.506;8.870;2022-09-01T09:15:16;10.57;;;9.57;;
11000;SDS011;5553;48.506;8.870;2022-09-01T09:17:57;11.20;;;9.50;;
11000;SDS011;5553;48.506;8.870;2022-09-01T09:20:32;9.33;;;8.43;;
11000;SDS011;5553;48.506;8.870;2022-09-01T09:23:04;9.47;;;8.30;;
11000;SDS011;5553;48.506;8.870;2022-09-01T09:25:51;8.47;;;7.20;;
11000;SDS011;5553;48.506;8.870;2022-09-01T09:28:19;9.50;;;8.60;;
11000;SDS011;5553;48.506;8.870;2022-09-01T09:30:47;8.57;;;7.77;;
11000;SDS011;5553;48.506;8.870;2022-09-01T09:36:17;8.00;;;7.20;;
11000;SDS011;5553;48.506;8.870;2022-09-01T09:38:57;9.80;;;8.90;;
11000;SDS011;5553;48.506;8.870;2022-09-01T09:41:31;8.87;;;7.97;;
11000;SDS011;5553;48.506;8.870;2022-09-01T09:44:04;9.80;;;7.20;;
11000;SDS011;5553;48.506;8.870;2022-09-01T09:46:42;9.13;;;8.23;;
11000;SDS011;5553;48.506;8.870;2022-09-01T09:49:15;10.80;;;8.40;;
11000;SDS011;5553;48.506;8.870;2022-09-01T09:51:48;8.40;;;7.13;;
11000;SDS011;5553;48.506;8.870;2022-09-01T09:54:22;7.63;;;7.03;;
11000;SDS011;5553;48.506;8.870;2022-09-01T09:57:04;7.73;;;6.90;;
11000;SDS011;5553;48.506;8.870;2022-09-01T09:59:39;7.70;;;7.00;;
11000;SDS011;5553;48.506;8.870;2022-09-01T10:02:15;7.83;;;7.03;;
11000;SDS011;5553;48.506;8.870;2022-09-01T10:04:50;7.37;;;6.77;;
11000;SDS011;5553;48.506;8.870;2022-09-01T10:07:24;6.77;;;6.17;;
11000;SDS011;5553;48.506;8.870;2022-09-01T10:09:58;6.93;;;6.40;;
11000;SDS011;5553;48.506;8.870;2022-09-01T10:12:28;9.50;;;6.33;;
11000;SDS011;5553;48.506;8.870;2022-09-01T10:14:58;8.53;;;6.70;;
11000;SDS011;5553;48.506;8.870;2022-09-01T10:17:29;7.47;;;6.77;;
11000;SDS011;5553;48.506;8.870;2022-09-01T10:20:03;9.80;;;6.90;;
11000;SDS011;5553;48.506;8.870;2022-09-01T10:22:34;7.43;;;6.57;;
11000;SDS011;5553;48.506;8.870;2022-09-01T10:25:07;8.10;;;6.37;;
11000;SDS011;5553;48.506;8.870;2022-09-01T10:27:39;6.80;;;6.20;;
11000;SDS011;5553;48.506;8.870;2022-09-01T10:30:12;6.63;;;6.00;;
11000;SDS011;5553;48.506;8.870;2022-09-01T10:32:43;6.97;;;6.30;;
11000;SDS011;5553;48.506;8.870;2022-09-01T10:35:14;7.20;;;6.50;;
11000;SDS011;5553;48.506;8.870;2022-09-01T10:37:47;6.63;;;5.93;;
11000;SDS011;5553;48.506;8.870;2022-09-01T10:40:33;6.27;;;5.73;;
11000;SDS011;5553;48.506;8.870;2022-09-01T10:43:26;5.60;;;5.10;;
11000;SDS011;5553;48.506;8.870;2022-09-01T10:46:09;6.00;;;5.50;;
11000;SDS011;5553;48.506;8.870;2022-09-01T10:48:53;5.87;;;5.37;;
11000;SDS011;5553;48.506;8.870;2022-09-01T10:57:18;5.73;;;5.30;;
11000;SDS011;5553;48.506;8.870;2022-09-01T11:09:26;5.40;;;4.97;;
11000;SDS011;5553;48.506;8.870;2022-09-01T11:12:02;4.07;;;3.77;;
11000;SDS011;5553;48.506;8.870;2022-09-01T11:14:51;4.13;;;3.83;;
11000;SDS011;5553;48.506;8.870;2022-09-01T11:17:22;8.33;;;4.17;;
11000;SDS011;5553;48.506;8.870;2022-09-01T11:19:53;4.27;;;3.97;;
11000;SDS011;5553;48.506;8.870;2022-09-01T11:22:26;4.10;;;3.80;;
11000;SDS011;5553;48.506;8.870;2022-09-01T11:28:02;4.03;;;3.73;;
11000;SDS011;5553;48.506;8.870;2022-09-01T11:30:38;4.60;;;4.20;;
11000;SDS011;5553;48.506;8.870;2022-09-01T11:33:22;4.53;;;4.23;;
11000;SDS011;5553;48.506;8.870;2022-09-01T11:35:57;4.47;;;4.07;;
11000;SDS011;5553;48.506;8.870;2022-09-01T11:38:30;4.30;;;3.90;;
11000;SDS011;5553;48.506;8.870;2022-09-01T11:41:03;4.57;;;4.13;;
11000;SDS011;5553;48.506;8.870;2022-09-01T11:43:32;4.33;;;4.00;;
11000;SDS011;5553;48.506;8.870;2022-09-01T11:46:04;4.43;;;4.03;;
11000;SDS011;5553;48.506;8.870;2022-09-01T11:48:39;5.57;;;3.77;;
11000;SDS011;5553;48.506;8.870;2022-09-01T11:51:12;4.30;;;4.00;;
11000;SDS011;5553;48.506;8.870;2022-09-01T11:53:42;4.40;;;4.10;;
11000;SDS011;5553;48.506;8.870;2022-09-01T11:56:13;3.87;;;3.57;;
11000;SDS011;5553;48.506;8.870;2022-09-01T11:58:44;5.00;;;4.50;;
11000;SDS011;5553;48.506;8.870;2022-09-01T12:01:17;5.87;;;4.40;;
11000;SDS011;5553;48.506;8.870;2022-09-01T12:03:47;3.93;;;3.63;;
11000;SDS011;5553;48.506;8.870;2022-09-01T12:06:20;4.53;;;4.10;;
11000;SDS011;5553;48.506;8.870;2022-09-01T12:08:52;4.43;;;4.03;;
11000;SDS011;5553;48.506;8.870;2022-09-01T12:11:23;5.40;;;3.67;;
11000;SDS011;5553;48.506;8.870;2022-09-01T12:13:56;4.47;;;4.07;;
11000;SDS011;5553;48.506;8.870;2022-09-01T12:16:30;4.70;;;4.30;;
11000;SDS011;5553;48.506;8.870;2022-09-01T12:19:01;5.30;;;4.33;;
11000;SDS011;5553;48.506;8.870;2022-09-01T12:21:32;7.83;;;3.60;;
11000;SDS011;5553;48.506;8.870;2022-09-01T12:24:09;4.17;;;3.87;;
11000;SDS011;5553;48.506;8.870;2022-09-01T12:26:40;4.10;;;3.80;;
11000;SDS011;5553;48.506;8.870;2022-09-01T12:29:08;3.97;;;3.67;;
11000;SDS011;5553;48.506;8.870;2022-09-01T12:31:41;4.80;;;4.40;;
11000;SDS011;5553;48.506;8.870;2022-09-01T12:34:22;4.20;;;3.90;;
11000;SDS011;5553;48.506;8.870;2022-09-01T12:37:02;3.70;;;3.40;;
11000;SDS011;5553;48.506;8.870;2022-09-01T12:39:33;4.37;;;4.00;;
11000;SDS011;5553;48.506;8.870;2022-09-01T12:42:04;4.40;;;4.10;;
11000;SDS011;5553;48.506;8.870;2022-09-01T12:44:42;4.10;;;3.70;;
11000;SDS011;5553;48.506;8.870;2022-09-01T12:53:22;3.63;;;3.43;;
11000;SDS011;5553;48.506;8.870;2022-09-01T12:55:53;4.73;;;4.37;;
11000;SDS011;5553;48.506;8.870;2022-09-01T12:58:26;4.40;;;4.10;;
11000;SDS011;5553;48.506;8.870;2022-09-01T13:00:57;3.50;;;3.30;;
11000;SDS011;5553;48.506;8.870;2022-09-01T13:03:31;3.90;;;3.60;;
11000;SDS011;5553;48.506;8.870;2022-09-01T13:06:01;4.47;;;4.10;;
11000;SDS011;5553;48.506;8.870;2022-09-01T13:08:32;4.40;;;4.10;;
11000;SDS011;5553;48.506;8.870;2022-09-01T13:11:02;3.77;;;3.47;;
11000;SDS011;5553;48.506;8.870;2022-09-01T13:13:32;3.97;;;3.67;;
11000;SDS011;5553;48.506;8.870;2022-09-01T13:16:02;3.97;;;3.47;;
11000;SDS011;5553;48.506;8.870;2022-09-01T13:18:39;3.70;;;3.40;;
11000;SDS011;5553;48.506;8.870;2022-09-01T13:21:09;3.40;;;3.20;;
11000;SDS011;5553;48.506;8.870;2022-09-01T13:23:39;3.17;;;2.97;;
11000;SDS011;5553;48.506;8.870;2022-09-01T13:26:08;3.87;;;3.57;;
11000;SDS011;5553;48.506;8.870;2022-09-01T13:28:36;4.43;;;4.03;;
11000;SDS011;5553;48.506;8.870;2022-09-01T13:31:05;3.80;;;3.57;;
11000;SDS011;5553;48.506;8.870;2022-09-01T13:33:33;3.53;;;3.23;;
11000;SDS011;5553;48.506;8.870;2022-09-01T13:36:05;4.50;;;3.90;;
11000;SDS011;5553;48.506;8.870;2022-09-01T13:38:34;3.20;;;3.00;;
11000;SDS011;5553;48.506;8.870;2022-09-01T13:41:03;4.20;;;3.90;;
11000;SDS011;5553;48.506;8.870;2022-09-01T13:43:33;3.83;;;3.53;;
11000;SDS011;5553;48.506;8.870;2022-09-01T13:46:02;3.77;;;3.43;;
11000;SDS011;5553;48.506;8.870;2022-09-01T13:48:30;3.30;;;3.10;;
11000;SDS011;5553;48.506;8.870;2022-09-01T13:50:59;3.63;;;3.30;;
11000;SDS011;5553;48.506;8.870;2022-09-01T13:53:30;3.47;;;3.27;;
11000;SDS011;5553;48.506;8.870;2022-09-01T13:55:58;3.77;;;3.47;;
11000;SDS011;5553;48.506;8.870;2022-09-01T13:58:27;3.67;;;3.37;;
11000;SDS011;5553;48.506;8.870;2022-09-01T14:00:55;3.90;;;3.60;;
11000;SDS011;5553;48.506;8.870;2022-09-01T14:03:24;3.97;;;3.57;;
11000;SDS011;5553;48.506;8.870;2022-09-01T14:05:53;3.40;;;3.20;;
11000;SDS011;5553;48.506;8.870;2022-09-01T14:08:21;3.63;;;3.40;;
11000;SDS011;5553;48.506;8.870;2022-09-01T14:10:52;3.70;;;3.40;;
11000;SDS011;5553;48.506;8.870;2022-09-01T14:13:22;4.37;;;4.00;;
11000;SDS011;5553;48.506;8.870;2022-09-01T14:15:51;5.60;;;3.67;;
11000;SDS011;5553;48.506;8.870;2022-09-01T14:18:20;6.20;;;3.87;;
11000;SDS011;5553;48.506;8.870;2022-09-01T14:20:56;4.33;;;3.90;;
11000;SDS011;5553;48.506;8.870;2022-09-01T14:23:25;4.67;;;4.27;;
11000;SDS011;5553;48.506;8.870;2022-09-01T14:25:56;4.30;;;4.00;;
11000;SDS011;5553;48.506;8.870;2022-09-01T14:28:25;4.03;;;3.73;;
11000;SDS011;5553;48.506;8.870;2022-09-01T14:30:53;4.83;;;3.03;;
11000;SDS011;5553;48.506;8.870;2022-09-01T14:33:22;3.97;;;3.67;;
11000;SDS011;5553;48.506;8.870;2022-09-01T14:35:51;3.53;;;3.33;;
11000;SDS011;5553;48.506;8.870;2022-09-01T14:38:19;4.17;;;3.87;;
11000;SDS011;5553;48.506;8.870;2022-09-01T14:40:47;3.53;;;3.30;;
11000;SDS011;5553;48.506;8.870;2022-09-01T14:43:19;3.90;;;3.60;;
11000;SDS011;5553;48.506;8.870;2022-09-01T14:45:48;3.80;;;3.50;;
11000;SDS011;5553;48.506;8.870;2022-09-01T14:48:18;3.43;;;3.23;;
11000;SDS011;5553;48.506;8.870;2022-09-01T14:50:48;3.60;;;3.30;;
11000;SDS011;5553;48.506;8.870;2022-09-01T14:53:16;4.27;;;3.97;;
11000;SDS011;5553;48.506;8.870;2022-09-01T14:55:46;5.13;;;3.87;;
11000;SDS011;5553;48.506;8.870;2022-09-01T14:58:14;3.57;;;3.27;;
11000;SDS011;5553;48.506;8.870;2022-09-01T15:00:45;3.57;;;3.27;;
11000;SDS011;5553;48.506;8.870;2022-09-01T15:03:14;4.23;;;3.83;;
11000;SDS011;5553;48.506;8.870;2022-09-01T15:05:43;4.00;;;3.70;;
11000;SDS011;5553;48.506;8.870;2022-09-01T15:08:11;5.50;;;3.63;;
11000;SDS011;5553;48.506;8.870;2022-09-01T15:10:40;3.67;;;3.37;;
11000;SDS011;5553;48.506;8.870;2022-09-01T15:13:08;3.70;;;3.40;;
11000;SDS011;5553;48.506;8.870;2022-09-01T15:15:37;4.03;;;3.73;;
11000;SDS011;5553;48.506;8.870;2022-09-01T15:18:08;4.00;;;3.70;;
11000;SDS011;5553;48.506;8.870;2022-09-01T15:20:38;5.63;;;3.83;;
11000;SDS011;5553;48.506;8.870;2022-09-01T15:23:15;4.37;;;4.03;;
11000;SDS011;5553;48.506;8.870;2022-09-01T15:25:46;3.80;;;3.50;;
11000;SDS011;5553;48.506;8.870;2022-09-01T15:28:15;4.00;;;3.33;;
11000;SDS011;5553;48.506;8.870;2022-09-01T15:30:43;4.20;;;3.80;;
11000;SDS011;5553;48.506;8.870;2022-09-01T15:33:16;4.20;;;3.90;;
11000;SDS011;5553;48.506;8.870;2022-09-01T15:35:45;4.43;;;4.03;;
11000;SDS011;5553;48.506;8.870;2022-09-01T15:38:14;4.67;;;4.27;;
11000;SDS011;5553;48.506;8.870;2022-09-01T15:40:43;5.10;;;4.60;;
11000;SDS011;5553;48.506;8.870;2022-09-01T15:43:13;4.60;;;4.20;;
11000;SDS011;5553;48.506;8.870;2022-09-01T15:45:41;4.93;;;4.43;;
11000;SDS011;5553;48.506;8.870;2022-09-01T15:48:12;4.57;;;4.27;;
11000;SDS011;5553;48.506;8.870;2022-09-01T15:50:43;3.90;;;3.60;;
11000;SDS011;5553;48.506;8.870;2022-09-01T15:53:12;4.63;;;4.33;;
11000;SDS011;5553;48.506;8.870;2022-09-01T15:55:41;6.57;;;4.83;;
11000;SDS011;5553;48.506;8.870;2022-09-01T15:58:12;4.93;;;4.37;;
11000;SDS011;5553;48.506;8.870;2022-09-01T16:00:42;3.73;;;3.33;;
11000;SDS011;5553;48.506;8.870;2022-09-01T16:03:11;4.50;;;4.20;;
11000;SDS011;5553;48.506;8.870;2022-09-01T16:05:42;4.37;;;4.00;;
11000;SDS011;5553;48.506;8.870;2022-09-01T16:08:10;5.50;;;5.00;;
11000;SDS011;5553;48.506;8.870;2022-09-01T16:10:39;4.30;;;3.90;;
11000;SDS011;5553;48.506;8.870;2022-09-01T16:13:08;5.83;;;5.30;;
11000;SDS011;5553;48.506;8.870;2022-09-01T16:15:39;4.60;;;4.10;;
11000;SDS011;5553;48.506;8.870;2022-09-01T16:18:14;4.60;;;4.30;;
11000;SDS011;5553;48.506;8.870;2022-09-01T16:20:57;4.73;;;4.33;;
11000;SDS011;5553;48.506;8.870;2022-09-01T16:23:31;4.00;;;3.70;;
11000;SDS011;5553;48.506;8.870;2022-09-01T16:26:05;4.53;;;4.13;;
11000;SDS011;5553;48.506;8.870;2022-09-01T16:28:35;4.90;;;4.40;;
11000;SDS011;5553;48.506;8.870;2022-09-01T16:31:06;4.97;;;4.50;;
11000;SDS011;5553;48.506;8.870;2022-09-01T16:33:41;4.10;;;3.70;;
11000;SDS011;5553;48.506;8.870;2022-09-01T16:36:22;4.80;;;4.30;;
11000;SDS011;5553;48.506;8.870;2022-09-01T16:39:00;4.37;;;3.97;;
11000;SDS011;5553;48.506;8.870;2022-09-01T16:41:37;4.70;;;4.30;;
11000;SDS011;5553;48.506;8.870;2022-09-01T16:44:17;4.90;;;4.50;;
11000;SDS011;5553;48.506;8.870;2022-09-01T16:46:55;5.20;;;4.77;;
11000;SDS011;5553;48.506;8.870;2022-09-01T16:49:32;5.57;;;5.13;;
11000;SDS011;5553;48.506;8.870;2022-09-01T16:52:11;5.50;;;5.10;;
11000;SDS011;5553;48.506;8.870;2022-09-01T16:54:50;6.30;;;5.43;;
11000;SDS011;5553;48.506;8.870;2022-09-01T16:57:28;4.97;;;4.57;;
11000;SDS011;5553;48.506;8.870;2022-09-01T17:00:07;5.63;;;5.07;;
11000;SDS011;5553;48.506;8.870;2022-09-01T17:02:41;5.90;;;5.40;;
11000;SDS011;5553;48.506;8.870;2022-09-01T17:05:24;6.20;;;4.83;;
11000;SDS011;5553;48.506;8.870;2022-09-01T17:07:58;6.57;;;5.40;;
11000;SDS011;5553;48.506;8.870;2022-09-01T17:10:38;6.07;;;5.20;;
11000;SDS011;5553;48.506;8.870;2022-09-01T17:13:11;5.20;;;4.80;;
11000;SDS011;5553;48.506;8.870;2022-09-01T17:15:46;6.77;;;5.20;;
11000;SDS011;5553;48.506;8.870;2022-09-01T17:18:20;4.60;;;4.30;;
11000;SDS011;5553;48.506;8.870;2022-09-01T17:20:58;5.53;;;5.07;;
11000;SDS011;5553;48.506;8.870;2022-09-01T17:23:38;5.73;;;5.27;;
11000;SDS011;5553;48.506;8.870;2022-09-01T20:47:54;9.27;;;8.37;;
11000;SDS011;5553;48.506;8.870;2022-09-01T20:50:26;9.13;;;7.70;;
11000;SDS011;5553;48.506;8.870;2022-09-01T20:53:06;9.13;;;8.33;;
11000;SDS011;5553;48.506;8.870;2022-09-01T20:55:46;9.23;;;7.43;;
11000;SDS011;5553;48.506;8.870;2022-09-01T20:58:23;8.60;;;7.80;;
11000;SDS011;5553;48.506;8.870;2022-09-01T21:01:00;8.37;;;7.47;;
11000;SDS011;5553;48.506;8.870;2022-09-01T21:03:39;8.17;;;7.37;;
11000;SDS011;5553;48.506;8.870;2022-09-01T21:06:18;8.80;;;7.83;;
11000;SDS011;5553;48.506;8.870;2022-09-01T21:08:55;8.73;;;8.00;;
11000;SDS011;5553;48.506;8.870;2022-09-01T21:11:33;8.90;;;8.10;;
11000;SDS011;5553;48.506;8.870;2022-09-01T21:14:11;8.07;;;7.37;;
11000;SDS011;5553;48.506;8.870;2022-09-01T21:16:56;9.20;;;8.33;;
11000;SDS011;5553;48.506;8.870;2022-09-01T21:19:36;7.90;;;7.10;;
11000;SDS011;5553;48.506;8.870;2022-09-01T21:22:11;8.23;;;7.53;;
11000;SDS011;5553;48.506;8.870;2022-09-01T21:24:42;8.40;;;7.57;;
11000;SDS011;5553;48.506;8.870;2022-09-01T21:27:12;11.60;;;9.07;;
11000;SDS011;5553;48.506;8.870;2022-09-01T21:29:47;8.57;;;7.57;;
11000;SDS011;5553;48.506;8.870;2022-09-01T21:32:22;9.80;;;8.60;;
11000;SDS011;5553;48.506;8.870;2022-09-01T21:34:53;9.00;;;8.00;;
11000;SDS011;5553;48.506;8.870;2022-09-01T21:37:23;9.20;;;8.20;;
11000;SDS011;5553;48.506;8.870;2022-09-01T21:39:53;9.33;;;7.83;;
11000;SDS011;5553;48.506;8.870;2022-09-01T21:42:23;8.93;;;8.03;;
11000;SDS011;5553;48.506;8.870;2022-09-01T21:44:54;9.30;;;7.73;;
11000;SDS011;5553;48.506;8.870;2022-09-01T21:47:24;7.90;;;7.23;;
11000;SDS011;5553;48.506;8.870;2022-09-01T21:49:55;8.43;;;7.60;;
11000;SDS011;5553;48.506;8.870;2022-09-01T21:52:24;8.30;;;6.97;;
11000;SDS011;5553;48.506;8.870;2022-09-01T21:54:53;9.00;;;8.10;;
11000;SDS011;5553;48.506;8.870;2022-09-01T21:57:21;7.90;;;7.10;;